Time;durP1;ratioP1;P1;durP2;ratioP2;P2;SDS_P1;SDS_P2;PMS_P1;PMS_P2;Temp;Humidity;BMP_temperature;BMP_pressure;BME280_temperature;BME280_humidity;BME280_pressure;Samples;Min_cycle;Max_cycle;Signal;HPM_P1;HPM_P2
2022/03/31 00:02:03;;;;;;;54.07;23.60;;;;;7.80;94501.00;;;;8379469;28;20220;-71
2022/03/31 00:06:06;;;;;;;61.67;24.87;;;;;7.70;94506.00;;;;8380620;28;20700;-71
2022/03/31 00:10:09;;;;;;;54.33;22.20;;;;;7.70;94501.00;;;;8375120;28;20249;-70
2022/03/31 00:14:12;;;;;;;54.93;23.03;;;;;7.70;94502.00;;;;8373242;28;20260;-71
2022/03/31 00:18:18;;;;;;;59.10;24.60;;;;;7.60;94503.00;;;;8378474;28;20239;-70
2022/03/31 00:22:21;;;;;;;61.87;25.73;;;;;7.60;94500.00;;;;8371293;28;20331;-70
2022/03/31 00:26:24;;;;;;;64.73;25.10;;;;;7.60;94508.00;;;;8380758;28;20823;-70
2022/03/31 00:30:27;;;;;;;59.80;23.93;;;;;7.60;94495.00;;;;8389759;28;20232;-71
2022/03/31 00:34:34;;;;;;;64.17;26.13;;;;;7.60;94497.00;;;;8378232;28;20791;-71
2022/03/31 00:38:37;;;;;;;64.77;25.73;;;;;7.60;94490.00;;;;8374212;28;20954;-73
2022/03/31 00:42:42;;;;;;;63.07;26.13;;;;;7.60;94485.00;;;;8388559;28;21048;-71
2022/03/31 00:46:50;;;;;;;64.90;24.33;;;;;7.60;94491.00;;;;8397219;28;20687;-72
2022/03/31 00:50:55;;;;;;;65.27;24.17;;;;;7.60;94485.00;;;;8382168;28;20220;-70
2022/03/31 00:54:58;;;;;;;68.23;25.13;;;;;7.60;94494.00;;;;8386270;28;20220;-69
2022/03/31 00:59:05;;;;;;;67.60;25.23;;;;;7.60;94490.00;;;;8385810;28;20326;-71
2022/03/31 01:03:08;;;;;;;67.90;23.90;;;;;7.60;94484.00;;;;8385602;28;20233;-70
2022/03/31 01:07:13;;;;;;;80.03;28.10;;;;;7.50;94475.00;;;;8386491;28;20295;-71
2022/03/31 01:11:16;;;;;;;72.87;25.43;;;;;7.40;94469.00;;;;8388891;28;20793;-71
2022/03/31 01:15:20;;;;;;;67.97;24.17;;;;;7.40;94460.00;;;;8389292;28;20234;-71
2022/03/31 01:19:23;;;;;;;88.60;27.33;;;;;7.30;94460.00;;;;8378674;28;20231;-71
2022/03/31 01:23:29;;;;;;;79.13;25.40;;;;;7.30;94449.00;;;;8393615;28;20232;-69
2022/03/31 01:27:34;;;;;;;97.67;29.03;;;;;7.30;94445.00;;;;8388790;28;20753;-70
2022/03/31 01:31:38;;;;;;;82.17;24.13;;;;;7.30;94434.00;;;;8387773;28;20238;-70
2022/03/31 01:35:42;;;;;;;78.07;25.33;;;;;7.30;94429.00;;;;8384435;28;20225;-70
2022/03/31 01:39:47;;;;;;;88.37;25.27;;;;;7.20;94421.00;;;;8382542;28;20306;-70
2022/03/31 01:43:50;;;;;;;90.50;27.10;;;;;7.20;94418.00;;;;8384740;28;20227;-70
2022/03/31 01:47:54;;;;;;;103.87;27.23;;;;;7.20;94417.00;;;;8388092;28;20682;-69
2022/03/31 01:51:57;;;;;;;92.70;26.80;;;;;7.20;94412.00;;;;8382466;28;20255;-70
2022/03/31 01:56:02;;;;;;;92.13;27.23;;;;;7.20;94416.00;;;;8377617;28;20358;-70
2022/03/31 02:00:07;;;;;;;87.93;24.67;;;;;7.20;94413.00;;;;8381215;28;20238;-71
2022/03/31 02:04:10;;;;;;;111.93;28.87;;;;;7.20;94410.00;;;;8379139;28;20771;-70
2022/03/31 02:08:13;;;;;;;103.00;28.30;;;;;7.30;94406.00;;;;8379342;28;20241;-69
2022/03/31 02:12:18;;;;;;;99.20;26.53;;;;;7.30;94397.00;;;;8394794;28;20888;-70
2022/03/31 02:16:21;;;;;;;96.40;25.47;;;;;7.20;94390.00;;;;8381473;28;20316;-70
2022/03/31 02:20:27;;;;;;;94.97;26.23;;;;;7.30;94399.00;;;;8403567;28;20255;-69
2022/03/31 02:24:30;;;;;;;111.73;27.77;;;;;7.30;94387.00;;;;8392219;28;20229;-70
2022/03/31 02:28:36;;;;;;;118.90;27.63;;;;;7.20;94394.00;;;;8396447;28;20427;-70
2022/03/31 02:32:41;;;;;;;121.70;29.17;;;;;7.20;94388.00;;;;8378893;28;20245;-71
2022/03/31 02:36:46;;;;;;;117.43;27.27;;;;;7.30;94384.00;;;;8394248;28;20229;-70
2022/03/31 02:40:49;;;;;;;110.73;27.90;;;;;7.30;94381.00;;;;8382204;28;20684;-71
2022/03/31 02:44:53;;;;;;;113.83;28.90;;;;;7.30;94366.00;;;;8383675;28;20314;-71
2022/03/31 02:48:57;;;;;;;125.27;27.87;;;;;7.30;94366.00;;;;8395993;28;20242;-69
2022/03/31 02:57:21;;;;;;;120.17;29.13;;;;;7.30;94359.00;;;;8378667;28;20692;-69
2022/03/31 03:01:27;;;;;;;142.87;29.53;;;;;7.30;94353.00;;;;8425394;22;21213;-69
2022/03/31 03:05:30;;;;;;;136.33;28.90;;;;;7.30;94347.00;;;;8368913;28;20240;-69
2022/03/31 03:09:33;;;;;;;125.37;26.40;;;;;7.30;94341.00;;;;8379717;28;20969;-70
2022/03/31 03:13:37;;;;;;;140.60;27.17;;;;;7.20;94349.00;;;;8377377;28;20617;-69
2022/03/31 03:17:45;;;;;;;123.97;25.03;;;;;7.20;94337.00;;;;8374897;28;20317;-70
2022/03/31 03:21:49;;;;;;;123.77;25.50;;;;;7.10;94337.00;;;;8382786;28;20234;-70
2022/03/31 03:25:52;;;;;;;149.73;27.93;;;;;7.10;94328.00;;;;8380274;28;20230;-69
2022/03/31 03:29:55;;;;;;;163.00;28.87;;;;;7.10;94328.00;;;;8379415;28;20235;-70
2022/03/31 03:33:59;;;;;;;130.43;26.07;;;;;7.10;94340.00;;;;8379209;28;20231;-70
2022/03/31 03:38:03;;;;;;;134.67;28.80;;;;;7.10;94337.00;;;;8375257;28;20334;-70
2022/03/31 03:42:07;;;;;;;135.67;24.93;;;;;7.00;94329.00;;;;8377490;28;20245;-69
2022/03/31 03:46:10;;;;;;;117.53;24.20;;;;;7.00;94329.00;;;;8381699;28;20613;-70
2022/03/31 03:50:15;;;;;;;113.33;23.23;;;;;7.00;94320.00;;;;8384107;28;20276;-70
2022/03/31 03:54:18;;;;;;;104.97;24.30;;;;;7.00;94319.00;;;;8384211;28;20267;-70
2022/03/31 03:58:22;;;;;;;95.77;21.97;;;;;7.00;94319.00;;;;8379913;28;20645;-70
2022/03/31 04:02:26;;;;;;;118.93;27.20;;;;;7.00;94307.00;;;;8370580;28;20247;-70
2022/03/31 04:06:31;;;;;;;97.83;23.90;;;;;7.00;94306.00;;;;8347031;28;20235;-70
2022/03/31 04:10:34;;;;;;;124.70;25.73;;;;;7.00;94299.00;;;;8342293;28;20666;-71
2022/03/31 04:14:37;;;;;;;104.60;23.53;;;;;7.00;94304.00;;;;8344517;28;20228;-69
2022/03/31 04:18:41;;;;;;;86.73;21.70;;;;;7.00;94311.00;;;;8335225;28;20235;-71
2022/03/31 04:22:46;;;;;;;103.70;24.83;;;;;6.90;94310.00;;;;8330360;28;20949;-70
2022/03/31 04:26:49;;;;;;;82.53;20.50;;;;;7.00;94315.00;;;;8348454;28;20229;-70
2022/03/31 04:30:53;;;;;;;83.87;21.33;;;;;7.00;94312.00;;;;8344473;28;20248;-69
2022/03/31 04:34:56;;;;;;;93.00;24.23;;;;;7.00;94317.00;;;;8334256;28;20230;-70
2022/03/31 04:39:01;;;;;;;82.00;20.47;;;;;7.00;94309.00;;;;8349340;28;20236;-70
2022/03/31 04:43:04;;;;;;;61.73;17.13;;;;;6.90;94286.00;;;;8341725;28;20312;-71
2022/03/31 04:47:08;;;;;;;77.23;19.50;;;;;6.90;94289.00;;;;8336843;28;20228;-69
2022/03/31 04:51:15;;;;;;;83.57;21.97;;;;;6.80;94303.00;;;;8346124;28;20736;-69
2022/03/31 04:55:21;;;;;;;73.17;20.03;;;;;6.80;94315.00;;;;8333339;28;20301;-69
2022/03/31 04:59:26;;;;;;;81.37;21.43;;;;;6.80;94300.00;;;;8338310;28;20724;-70
2022/03/31 05:03:29;;;;;;;91.17;22.83;;;;;6.80;94309.00;;;;8342695;28;20246;-71
2022/03/31 05:07:33;;;;;;;80.73;21.63;;;;;6.80;94297.00;;;;8346506;28;20745;-71
2022/03/31 05:11:38;;;;;;;63.40;16.60;;;;;6.80;94300.00;;;;8350620;28;20246;-71
2022/03/31 05:15:41;;;;;;;72.50;19.93;;;;;6.80;94301.00;;;;8344832;28;20232;-73
2022/03/31 05:19:44;;;;;;;70.40;19.20;;;;;6.80;94292.00;;;;8344689;28;20232;-70
2022/03/31 05:23:48;;;;;;;76.03;20.23;;;;;6.80;94308.00;;;;8345965;28;20226;-71
2022/03/31 05:27:53;;;;;;;84.50;23.57;;;;;6.80;94302.00;;;;8348220;28;21795;-70
2022/03/31 05:31:57;;;;;;;73.33;21.20;;;;;6.90;94309.00;;;;8341503;28;20295;-73
2022/03/31 05:36:01;;;;;;;66.20;19.97;;;;;6.90;94308.00;;;;8336840;28;20597;-71
2022/03/31 05:40:07;;;;;;;77.37;19.83;;;;;6.90;94321.00;;;;8336879;28;21140;-72
2022/03/31 05:44:12;;;;;;;80.10;22.03;;;;;6.90;94308.00;;;;8341367;28;20236;-72
2022/03/31 05:48:15;;;;;;;72.03;20.13;;;;;6.90;94319.00;;;;8344256;28;20228;-71
2022/03/31 05:52:19;;;;;;;75.73;20.17;;;;;6.90;94313.00;;;;8348457;28;20251;-72
2022/03/31 05:56:22;;;;;;;69.73;18.57;;;;;7.00;94326.00;;;;8336876;28;20240;-71
2022/03/31 06:00:27;;;;;;;74.87;19.87;;;;;7.10;94319.00;;;;8342705;28;20223;-71
2022/03/31 06:04:30;;;;;;;75.07;19.83;;;;;7.10;94320.00;;;;8340680;28;20231;-69
2022/03/31 06:08:33;;;;;;;67.67;19.00;;;;;7.00;94311.00;;;;8349255;28;20228;-71
2022/03/31 06:12:37;;;;;;;66.23;19.27;;;;;7.00;94319.00;;;;8350130;28;20230;-71
2022/03/31 06:16:42;;;;;;;66.90;18.23;;;;;7.00;94320.00;;;;8349085;28;20232;-70
2022/03/31 06:20:45;;;;;;;71.20;18.77;;;;;7.00;94317.00;;;;8343722;28;20224;-72
2022/03/31 06:24:49;;;;;;;73.00;18.87;;;;;7.00;94319.00;;;;8346733;28;20231;-70
2022/03/31 06:28:52;;;;;;;71.23;20.43;;;;;7.10;94308.00;;;;8348146;28;20311;-70
2022/03/31 06:32:58;;;;;;;64.37;19.33;;;;;7.10;94303.00;;;;8350861;28;20227;-70
2022/03/31 06:37:01;;;;;;;72.33;19.33;;;;;7.10;94320.00;;;;8348612;28;20335;-71
2022/03/31 06:41:08;;;;;;;65.63;18.90;;;;;7.10;94322.00;;;;8347341;28;20315;-70
2022/03/31 06:45:15;;;;;;;57.13;17.20;;;;;7.10;94322.00;;;;8349509;28;20231;-70
2022/03/31 06:49:35;;;;;;;60.83;16.60;;;;;7.20;94315.00;;;;8348527;28;20251;-70
2022/03/31 06:53:40;;;;;;;57.87;17.07;;;;;7.30;94320.00;;;;8341989;28;20275;-70
2022/03/31 06:57:43;;;;;;;57.00;17.20;;;;;7.30;94325.00;;;;8347579;28;20220;-70
2022/03/31 07:01:47;;;;;;;55.07;17.00;;;;;7.30;94320.00;;;;8345592;28;20593;-70
2022/03/31 07:05:52;;;;;;;49.43;15.83;;;;;7.40;94311.00;;;;8349075;28;21219;-71
2022/03/31 07:09:57;;;;;;;48.23;14.70;;;;;7.40;94313.00;;;;8347982;28;20326;-70
2022/03/31 07:14:01;;;;;;;42.50;14.00;;;;;7.40;94317.00;;;;8345070;28;20224;-70
2022/03/31 07:18:05;;;;;;;42.33;14.53;;;;;7.30;94308.00;;;;8346311;28;20589;-70
2022/03/31 07:22:09;;;;;;;43.33;14.33;;;;;7.30;94312.00;;;;8346844;28;20224;-70
2022/03/31 07:26:13;;;;;;;54.87;16.03;;;;;7.40;94303.00;;;;8348279;28;20804;-70
2022/03/31 07:30:17;;;;;;;53.47;14.87;;;;;7.40;94300.00;;;;8345046;28;20248;-71
2022/03/31 07:34:21;;;;;;;53.27;16.77;;;;;7.40;94298.00;;;;8345966;28;20326;-71
2022/03/31 07:38:25;;;;;;;57.30;16.77;;;;;7.40;94299.00;;;;8349027;28;20235;-70
2022/03/31 07:42:28;;;;;;;64.27;17.37;;;;;7.40;94307.00;;;;8345894;28;20262;-70
2022/03/31 07:46:32;;;;;;;58.63;17.23;;;;;7.40;94302.00;;;;8353587;28;20262;-69
2022/03/31 07:50:37;;;;;;;49.63;16.57;;;;;7.40;94297.00;;;;8346416;28;20514;-70
2022/03/31 07:54:42;;;;;;;60.63;18.07;;;;;7.40;94294.00;;;;8347486;28;20227;-71
2022/03/31 07:58:45;;;;;;;46.13;13.47;;;;;7.40;94291.00;;;;8347918;28;20234;-73
2022/03/31 08:02:51;;;;;;;57.93;16.60;;;;;7.40;94293.00;;;;8346251;28;20920;-73
2022/03/31 08:06:54;;;;;;;52.23;16.43;;;;;7.50;94298.00;;;;8349972;28;20303;-74
2022/03/31 08:10:59;;;;;;;62.37;19.10;;;;;7.50;94299.00;;;;8345114;28;20230;-72
2022/03/31 08:15:03;;;;;;;59.20;20.17;;;;;7.60;94296.00;;;;8346867;28;20241;-73
2022/03/31 08:19:06;;;;;;;52.33;15.80;;;;;7.60;94290.00;;;;8343986;28;20351;-71
2022/03/31 08:23:09;;;;;;;45.50;16.90;;;;;7.60;94290.00;;;;8350594;28;20246;-74
2022/03/31 08:27:15;;;;;;;44.30;15.53;;;;;7.50;94290.00;;;;8343961;28;20220;-72
2022/03/31 08:31:18;;;;;;;56.97;17.60;;;;;7.50;94289.00;;;;8342371;28;20235;-73
2022/03/31 08:35:28;;;;;;;50.27;16.90;;;;;7.50;94284.00;;;;8344857;28;20292;-73
2022/03/31 08:39:32;;;;;;;54.57;18.70;;;;;7.50;94277.00;;;;8345428;28;20236;-75
2022/03/31 08:43:38;;;;;;;50.57;17.50;;;;;7.50;94279.00;;;;8347324;28;20220;-72
2022/03/31 08:47:43;;;;;;;56.60;17.73;;;;;7.50;94285.00;;;;8327893;28;20236;-72
2022/03/31 08:51:52;;;;;;;56.20;20.03;;;;;7.60;94285.00;;;;8336459;28;20247;-70
2022/03/31 08:55:55;;;;;;;57.00;18.73;;;;;7.60;94287.00;;;;8343447;28;20715;-70
2022/03/31 09:00:01;;;;;;;48.30;17.63;;;;;7.70;94283.00;;;;8343239;28;20321;-71
2022/03/31 09:04:05;;;;;;;43.27;15.80;;;;;7.80;94272.00;;;;8349174;28;20228;-72
2022/03/31 09:08:19;;;;;;;45.93;18.03;;;;;7.90;94279.00;;;;8350561;28;20262;-73
2022/03/31 09:12:26;;;;;;;45.00;18.47;;;;;7.90;94280.00;;;;8351441;28;20291;-71
2022/03/31 09:16:50;;;;;;;49.07;17.23;;;;;7.90;94281.00;;;;8340630;28;20266;-72
2022/03/31 09:20:56;;;;;;;46.23;17.80;;;;;7.90;94289.00;;;;8353303;28;20238;-72
2022/03/31 09:25:02;;;;;;;40.83;15.83;;;;;7.90;94285.00;;;;8350795;28;20236;-71
2022/03/31 09:29:15;;;;;;;42.93;15.57;;;;;8.00;94285.00;;;;8348367;28;20319;-72
2022/03/31 09:33:30;;;;;;;41.57;16.00;;;;;8.00;94271.00;;;;8347095;28;20235;-72
2022/03/31 09:37:34;;;;;;;42.00;17.10;;;;;8.10;94275.00;;;;8346666;28;20258;-74
2022/03/31 09:41:39;;;;;;;42.00;17.20;;;;;8.10;94268.00;;;;8348791;28;20322;-73
2022/03/31 09:45:42;;;;;;;35.67;15.10;;;;;8.10;94274.00;;;;8344356;28;20638;-74
2022/03/31 09:49:53;;;;;;;39.60;15.93;;;;;8.20;94276.00;;;;8342497;28;20547;-73
2022/03/31 09:53:56;;;;;;;32.30;16.10;;;;;8.30;94270.00;;;;8342540;28;20236;-74
2022/03/31 09:58:00;;;;;;;32.80;15.30;;;;;8.30;94259.00;;;;8347983;28;20247;-72
2022/03/31 10:02:04;;;;;;;29.87;14.83;;;;;8.40;94268.00;;;;8353348;28;20247;-73
2022/03/31 10:06:09;;;;;;;29.10;13.03;;;;;8.40;94258.00;;;;8348912;28;20686;-74
2022/03/31 10:10:12;;;;;;;32.83;14.30;;;;;8.50;94262.00;;;;8345004;28;20236;-74
2022/03/31 10:14:30;;;;;;;33.33;13.43;;;;;8.50;94257.00;;;;8343160;28;20224;-73
2022/03/31 10:18:33;;;;;;;30.73;14.63;;;;;8.70;94255.00;;;;8344909;28;20229;-73
2022/03/31 10:27:01;;;;;;;28.60;13.47;;;;;9.00;94267.00;;;;8346046;28;20234;-71
2022/03/31 10:31:07;;;;;;;29.43;13.53;;;;;9.00;94261.00;;;;8348935;28;20229;-74
2022/03/31 10:35:21;;;;;;;29.53;13.83;;;;;9.10;94261.00;;;;8346477;28;20240;-76
2022/03/31 10:39:26;;;;;;;25.17;13.33;;;;;9.20;94253.00;;;;8344590;28;20224;-74
2022/03/31 10:43:31;;;;;;;33.00;13.17;;;;;9.30;94256.00;;;;8346452;28;20319;-75
2022/03/31 10:47:36;;;;;;;26.10;13.23;;;;;9.30;94248.00;;;;8348580;28;20688;-75
2022/03/31 10:51:41;;;;;;;25.30;11.90;;;;;9.40;94249.00;;;;8345739;28;20224;-72
2022/03/31 10:55:53;;;;;;;25.33;12.37;;;;;9.50;94249.00;;;;8349802;28;20228;-74
2022/03/31 11:00:07;;;;;;;23.67;12.20;;;;;9.40;94251.00;;;;8341295;28;20716;-75
2022/03/31 11:04:13;;;;;;;29.47;14.47;;;;;9.40;94246.00;;;;8345821;28;20224;-68
2022/03/31 11:08:18;;;;;;;26.20;13.13;;;;;9.40;94256.00;;;;8341529;28;20307;-68
2022/03/31 11:12:26;;;;;;;25.67;13.20;;;;;9.50;94251.00;;;;8347017;28;20235;-70
2022/03/31 11:16:37;;;;;;;22.17;10.73;;;;;9.50;94248.00;;;;8341730;28;20241;-71
2022/03/31 11:20:41;;;;;;;25.80;12.63;;;;;9.40;94245.00;;;;8337854;28;20304;-70
2022/03/31 11:24:44;;;;;;;22.80;12.17;;;;;9.40;94239.00;;;;8334903;28;20231;-70
2022/03/31 11:28:50;;;;;;;21.63;11.73;;;;;9.30;94230.00;;;;8335349;28;20224;-71
2022/03/31 11:32:55;;;;;;;19.80;10.83;;;;;9.40;94227.00;;;;8338039;28;20230;-70
2022/03/31 11:37:00;;;;;;;20.17;11.13;;;;;9.50;94230.00;;;;8344372;28;20216;-68
2022/03/31 11:41:04;;;;;;;22.30;11.60;;;;;9.60;94229.00;;;;8346761;28;20912;-69
2022/03/31 11:45:09;;;;;;;21.67;11.40;;;;;9.60;94221.00;;;;8348044;28;20232;-71
2022/03/31 11:49:16;;;;;;;20.83;10.93;;;;;9.70;94220.00;;;;8346010;28;20840;-70
2022/03/31 11:53:21;;;;;;;21.83;10.77;;;;;9.70;94218.00;;;;8349134;28;20239;-70
2022/03/31 11:57:24;;;;;;;20.23;11.40;;;;;9.80;94211.00;;;;8342885;28;20319;-70
2022/03/31 12:01:34;;;;;;;21.43;10.70;;;;;9.80;94203.00;;;;8344358;28;20235;-71
2022/03/31 12:05:38;;;;;;;22.20;11.43;;;;;9.90;94205.00;;;;8345770;28;20224;-70
2022/03/31 12:09:42;;;;;;;22.00;11.03;;;;;9.90;94197.00;;;;8338293;28;20289;-70
2022/03/31 12:13:51;;;;;;;21.87;11.43;;;;;10.10;94189.00;;;;8342076;28;20237;-68
2022/03/31 12:18:01;;;;;;;19.57;10.40;;;;;10.20;94182.00;;;;8343852;28;20236;-70
2022/03/31 12:22:05;;;;;;;19.47;11.07;;;;;10.40;94181.00;;;;8341009;28;20259;-69
2022/03/31 12:26:13;;;;;;;21.70;10.90;;;;;10.50;94185.00;;;;8343893;28;20227;-68
2022/03/31 12:30:16;;;;;;;22.17;10.67;;;;;10.50;94188.00;;;;8343490;28;20217;-69
2022/03/31 12:34:21;;;;;;;21.27;11.10;;;;;10.60;94181.00;;;;8344435;28;20252;-70
2022/03/31 12:38:36;;;;;;;20.90;10.27;;;;;10.70;94177.00;;;;8351303;28;20329;-71
2022/03/31 12:42:50;;;;;;;22.47;11.27;;;;;10.60;94177.00;;;;8346769;28;20216;-69
2022/03/31 12:46:55;;;;;;;23.33;12.10;;;;;10.60;94168.00;;;;8349855;28;20224;-69
2022/03/31 12:51:03;;;;;;;24.10;12.00;;;;;10.60;94169.00;;;;8343597;28;20227;-73
2022/03/31 12:55:06;;;;;;;22.87;11.73;;;;;10.70;94168.00;;;;8344586;28;20324;-74
2022/03/31 12:59:17;;;;;;;22.73;11.60;;;;;10.50;94172.00;;;;8341365;28;20231;-69
2022/03/31 13:03:20;;;;;;;20.93;11.13;;;;;10.40;94168.00;;;;8306811;28;1224584;-72
2022/03/31 13:07:28;;;;;;;25.23;12.27;;;;;10.10;94166.00;;;;8348695;28;20478;-71
2022/03/31 13:11:31;;;;;;;22.53;12.17;;;;;10.00;94165.00;;;;8345164;28;20238;-71
2022/03/31 13:15:40;;;;;;;27.20;12.90;;;;;9.90;94162.00;;;;8354468;28;20220;-71
2022/03/31 13:19:44;;;;;;;24.20;11.83;;;;;9.90;94157.00;;;;8346222;28;20333;-71
2022/03/31 13:23:49;;;;;;;23.33;12.63;;;;;9.80;94156.00;;;;8352295;28;21789;-67
2022/03/31 13:27:52;;;;;;;26.63;13.33;;;;;9.90;94159.00;;;;8352069;28;20239;-67
2022/03/31 13:31:56;;;;;;;27.90;13.40;;;;;9.80;94150.00;;;;8352277;28;20224;-68
2022/03/31 13:35:59;;;;;;;27.27;13.57;;;;;9.70;94151.00;;;;8356403;28;20244;-70
2022/03/31 13:40:07;;;;;;;24.63;12.87;;;;;9.60;94146.00;;;;8352379;28;20227;-67
2022/03/31 13:44:12;;;;;;;27.03;13.47;;;;;9.50;94144.00;;;;8352549;28;20221;-67
2022/03/31 13:48:15;;;;;;;27.27;13.17;;;;;9.70;94146.00;;;;8343734;28;20228;-67
2022/03/31 13:52:19;;;;;;;23.90;12.50;;;;;9.80;94135.00;;;;8343971;28;20319;-67
2022/03/31 13:56:24;;;;;;;23.13;11.50;;;;;9.70;94139.00;;;;8351346;28;20235;-67
2022/03/31 14:04:48;;;;;;;24.17;11.90;;;;;9.60;94135.00;;;;8346063;28;20300;-67
2022/03/31 14:08:52;;;;;;;24.47;11.83;;;;;9.70;94135.00;;;;8350196;28;20311;-67
2022/03/31 14:12:57;;;;;;;24.73;10.90;;;;;9.70;94124.00;;;;8346909;28;20566;-65
2022/03/31 14:17:00;;;;;;;26.23;12.30;;;;;9.60;94134.00;;;;8354071;28;20220;-67
2022/03/31 14:21:06;;;;;;;20.53;11.10;;;;;9.60;94129.00;;;;8345644;28;20557;-65
2022/03/31 14:25:10;;;;;;;22.33;11.27;;;;;9.50;94133.00;;;;8346715;28;20350;-68
2022/03/31 14:29:16;;;;;;;19.07;10.83;;;;;9.50;94129.00;;;;8347397;28;20234;-65
2022/03/31 14:33:19;;;;;;;38.97;17.57;;;;;9.50;94135.00;;;;8350504;28;20231;-66
2022/03/31 14:37:23;;;;;;;17.77;10.97;;;;;9.50;94132.00;;;;8350605;28;20234;-66
2022/03/31 14:41:27;;;;;;;22.93;12.30;;;;;9.50;94118.00;;;;8349800;28;20231;-66
2022/03/31 14:45:32;;;;;;;20.07;10.77;;;;;9.50;94127.00;;;;8350535;28;20756;-70
2022/03/31 14:49:36;;;;;;;21.80;10.50;;;;;9.50;94120.00;;;;8352427;28;20869;-70
2022/03/31 14:53:39;;;;;;;23.47;11.20;;;;;9.40;94115.00;;;;8348473;28;20229;-67
2022/03/31 14:57:42;;;;;;;21.47;10.03;;;;;9.30;94124.00;;;;8347001;28;20328;-69
2022/03/31 15:01:48;;;;;;;20.33;11.03;;;;;9.20;94121.00;;;;8348400;28;20647;-71
2022/03/31 15:05:52;;;;;;;20.67;10.97;;;;;9.10;94111.00;;;;8355048;28;20255;-70
2022/03/31 15:14:31;;;;;;;18.20;9.90;;;;;9.00;94117.00;;;;8348246;28;20305;-70
2022/03/31 15:18:38;;;;;;;18.70;10.13;;;;;8.90;94113.00;;;;8351202;28;20255;-70
2022/03/31 15:22:44;;;;;;;22.53;11.40;;;;;8.90;94107.00;;;;8344821;28;20227;-72
2022/03/31 15:26:56;;;;;;;20.43;11.77;;;;;8.80;94110.00;;;;8348841;28;20328;-72
2022/03/31 15:31:02;;;;;;;20.70;11.97;;;;;8.80;94109.00;;;;8326539;28;20238;-70
2022/03/31 15:35:11;;;;;;;21.67;11.03;;;;;8.80;94104.00;;;;8338381;28;20247;-73
2022/03/31 15:39:14;;;;;;;24.80;12.80;;;;;8.70;94111.00;;;;8344953;28;20238;-71
2022/03/31 15:43:37;;;;;;;21.87;12.67;;;;;8.60;94103.00;;;;8347325;28;20277;-71
2022/03/31 15:47:40;;;;;;;27.53;13.70;;;;;8.60;94106.00;;;;8351862;28;20231;-72
2022/03/31 15:51:45;;;;;;;24.13;13.00;;;;;8.60;94099.00;;;;8349490;28;20238;-71
2022/03/31 15:55:49;;;;;;;22.13;12.00;;;;;8.60;94101.00;;;;8346930;28;20239;-71
2022/03/31 15:59:53;;;;;;;28.67;14.93;;;;;8.50;94099.00;;;;8334317;28;20246;-70
2022/03/31 16:03:56;;;;;;;22.93;12.90;;;;;8.50;94108.00;;;;8335274;28;20229;-70
2022/03/31 16:08:01;;;;;;;28.57;15.23;;;;;8.50;94098.00;;;;8336326;28;20228;-72
2022/03/31 16:12:06;;;;;;;21.77;11.03;;;;;8.50;94112.00;;;;8340839;28;20306;-71
2022/03/31 16:16:09;;;;;;;30.50;14.77;;;;;8.50;94100.00;;;;8356642;28;20246;-70
2022/03/31 16:20:14;;;;;;;22.37;13.03;;;;;8.50;94101.00;;;;8363494;28;20272;-71
2022/03/31 16:24:18;;;;;;;20.40;12.20;;;;;8.50;94099.00;;;;8340255;28;20643;-71
2022/03/31 16:28:24;;;;;;;29.13;15.03;;;;;8.40;94096.00;;;;8351960;28;20290;-72
2022/03/31 16:32:27;;;;;;;24.23;12.80;;;;;8.30;94097.00;;;;8346271;28;20225;-72
2022/03/31 16:36:31;;;;;;;30.30;16.07;;;;;8.30;94110.00;;;;8352067;28;20286;-71
2022/03/31 16:40:36;;;;;;;24.97;13.17;;;;;8.30;94105.00;;;;8345162;28;20231;-72
2022/03/31 16:44:39;;;;;;;23.70;12.67;;;;;8.30;94112.00;;;;8350925;28;20823;-72
2022/03/31 16:48:43;;;;;;;30.27;15.70;;;;;8.20;94108.00;;;;8351612;28;20682;-72
2022/03/31 16:52:47;;;;;;;28.07;14.83;;;;;8.10;94113.00;;;;8351431;28;20657;-71
2022/03/31 16:56:52;;;;;;;23.67;13.10;;;;;8.10;94113.00;;;;8345070;28;20229;-72
2022/03/31 17:00:56;;;;;;;23.33;13.53;;;;;8.00;94111.00;;;;8363439;28;20242;-72
2022/03/31 17:04:59;;;;;;;21.73;13.33;;;;;7.90;94107.00;;;;8352107;28;20250;-73
2022/03/31 17:09:03;;;;;;;22.87;12.37;;;;;7.80;94112.00;;;;8357757;28;20249;-72
2022/03/31 17:13:08;;;;;;;24.10;12.30;;;;;7.70;94111.00;;;;8350643;28;20220;-71
2022/03/31 17:17:12;;;;;;;18.77;11.33;;;;;7.70;94108.00;;;;8349079;28;20239;-71
2022/03/31 17:21:19;;;;;;;25.17;12.80;;;;;7.70;94112.00;;;;8351046;28;20266;-70
2022/03/31 17:25:26;;;;;;;26.37;13.07;;;;;7.60;94112.00;;;;8355911;28;20240;-72
2022/03/31 17:29:31;;;;;;;20.53;12.33;;;;;7.60;94104.00;;;;8351839;28;20329;-71
2022/03/31 17:33:35;;;;;;;17.97;11.17;;;;;7.50;94110.00;;;;8345293;28;20228;-71
2022/03/31 17:37:39;;;;;;;19.87;11.60;;;;;7.50;94110.00;;;;8349728;28;20264;-71
2022/03/31 17:41:42;;;;;;;25.13;13.17;;;;;7.40;94109.00;;;;8352886;28;20622;-70
2022/03/31 17:45:46;;;;;;;22.20;11.63;;;;;7.30;94116.00;;;;8344957;28;20707;-71
2022/03/31 17:49:50;;;;;;;20.87;11.73;;;;;7.20;94115.00;;;;8342557;28;20251;-71
2022/03/31 17:53:53;;;;;;;21.77;11.43;;;;;7.20;94105.00;;;;8350762;28;20220;-72
2022/03/31 17:57:56;;;;;;;21.57;11.37;;;;;7.10;94117.00;;;;8349930;28;20319;-71
2022/03/31 18:02:01;;;;;;;21.50;12.73;;;;;7.10;94120.00;;;;8346544;28;20232;-73
2022/03/31 18:06:05;;;;;;;21.20;11.23;;;;;7.00;94116.00;;;;8344676;28;20596;-72
2022/03/31 18:10:11;;;;;;;19.53;11.13;;;;;6.90;94124.00;;;;8347506;28;20228;-71
2022/03/31 18:14:14;;;;;;;22.20;11.70;;;;;6.90;94122.00;;;;8340994;28;20351;-72
2022/03/31 18:18:19;;;;;;;20.67;11.20;;;;;6.80;94120.00;;;;8341394;28;20242;-71
2022/03/31 18:22:22;;;;;;;22.97;10.90;;;;;6.80;94135.00;;;;8339211;28;20703;-70
2022/03/31 18:26:27;;;;;;;25.93;14.10;;;;;6.70;94127.00;;;;8344890;28;20227;-70
2022/03/31 18:35:01;;;;;;;32.70;15.00;;;;;6.80;94135.00;;;;8304838;28;20232;-70
2022/03/31 18:39:07;;;;;;;34.37;14.70;;;;;6.70;94135.00;;;;8343651;28;20691;-70
2022/03/31 18:43:11;;;;;;;31.93;15.57;;;;;6.70;94134.00;;;;8344391;28;20230;-70
2022/03/31 18:47:14;;;;;;;27.07;14.47;;;;;6.80;94142.00;;;;8350469;28;20234;-71
2022/03/31 18:51:21;;;;;;;31.20;15.60;;;;;6.70;94146.00;;;;8348150;28;20721;-70
2022/03/31 18:55:24;;;;;;;30.93;15.30;;;;;6.80;94143.00;;;;8352685;28;20601;-70
2022/03/31 18:59:29;;;;;;;31.70;15.50;;;;;6.80;94155.00;;;;8354474;28;20780;-70
2022/03/31 19:03:33;;;;;;;30.67;14.57;;;;;6.80;94154.00;;;;8342012;28;20236;-70
2022/03/31 19:07:38;;;;;;;31.57;15.80;;;;;6.80;94154.00;;;;8346547;28;20323;-68
2022/03/31 19:11:41;;;;;;;33.53;16.30;;;;;6.80;94158.00;;;;8342283;28;20227;-70
2022/03/31 19:15:45;;;;;;;25.03;13.07;;;;;6.80;94163.00;;;;8347822;28;20320;-70
2022/03/31 19:19:48;;;;;;;30.10;15.37;;;;;6.80;94160.00;;;;8350594;28;20251;-70
2022/03/31 19:24:08;;;;;;;32.83;15.93;;;;;6.70;94169.00;;;;8348419;28;20334;-69
2022/03/31 19:28:14;;;;;;;28.97;15.50;;;;;6.70;94156.00;;;;8346186;28;20998;-68
2022/03/31 19:32:18;;;;;;;31.93;15.00;;;;;6.70;94167.00;;;;8347096;28;20764;-68
2022/03/31 19:36:21;;;;;;;27.10;13.70;;;;;6.70;94176.00;;;;8347295;28;20609;-70
2022/03/31 19:40:29;;;;;;;27.07;14.83;;;;;6.70;94162.00;;;;8332143;28;20236;-69
2022/03/31 19:44:36;;;;;;;28.87;14.60;;;;;6.70;94163.00;;;;8329408;28;20701;-70
2022/03/31 19:48:43;;;;;;;29.17;15.07;;;;;6.70;94165.00;;;;8331194;28;20229;-69
2022/03/31 19:52:48;;;;;;;26.37;14.10;;;;;6.70;94157.00;;;;8336595;28;20217;-70
2022/03/31 19:56:53;;;;;;;23.27;13.40;;;;;6.60;94164.00;;;;8345026;28;20732;-71
2022/03/31 20:00:56;;;;;;;20.53;12.27;;;;;6.60;94159.00;;;;8343389;28;20238;-68
2022/03/31 20:04:59;;;;;;;25.60;12.50;;;;;6.60;94160.00;;;;8336645;28;20236;-69
2022/03/31 20:09:03;;;;;;;24.20;13.73;;;;;6.60;94151.00;;;;8337194;28;20231;-68
2022/03/31 20:13:09;;;;;;;22.17;11.80;;;;;6.60;94161.00;;;;8338386;28;20219;-68
2022/03/31 20:17:13;;;;;;;28.50;13.97;;;;;6.50;94145.00;;;;8344734;28;20239;-67
2022/03/31 20:21:17;;;;;;;23.93;12.90;;;;;6.50;94148.00;;;;8343048;28;20327;-69
2022/03/31 20:25:20;;;;;;;22.87;11.83;;;;;6.50;94145.00;;;;8348917;28;20228;-68
2022/03/31 20:29:25;;;;;;;25.60;13.17;;;;;6.50;94143.00;;;;8339489;28;20225;-69